sensor_id;sensor_type;location;lat;lon;timestamp;pressure;altitude;pressure_sealevel;temperature;humidity
62976;BME280;49071;0.000;0.000;2023-05-03T05:45:13;102106.66;;;18.96;40.34
62976;BME280;49071;0.000;0.000;2023-05-03T05:48:13;102110.03;;;18.68;41.09
62976;BME280;49071;0.000;0.000;2023-05-03T05:51:13;102113.56;;;18.67;41.28
62976;BME280;49071;0.000;0.000;2023-05-03T05:54:14;102121.22;;;18.76;41.43
62976;BME280;49071;0.000;0.000;2023-05-03T05:57:15;102118.25;;;18.88;40.95
62976;BME280;49071;0.000;0.000;2023-05-03T06:00:15;102110.06;;;18.99;40.93
62976;BME280;49071;0.000;0.000;2023-05-03T06:03:16;102118.44;;;19.14;40.75
62976;BME280;49071;0.000;0.000;2023-05-03T06:06:16;102113.66;;;19.26;40.60
62976;BME280;49071;0.000;0.000;2023-05-03T06:09:16;102115.09;;;19.38;40.47
62976;BME280;49071;0.000;0.000;2023-05-03T06:12:17;102112.06;;;19.50;40.56
62976;BME280;49071;0.000;0.000;2023-05-03T06:15:17;102125.75;;;19.63;40.70
62976;BME280;49071;0.000;0.000;2023-05-03T06:18:17;102113.25;;;19.70;40.30
62976;BME280;49071;0.000;0.000;2023-05-03T06:21:18;102122.66;;;19.78;39.95
62976;BME280;49071;0.000;0.000;2023-05-03T06:24:18;102120.91;;;19.77;39.99
62976;BME280;49071;0.000;0.000;2023-05-03T06:27:19;102126.97;;;19.81;40.22
62976;BME280;49071;0.000;0.000;2023-05-03T06:30:20;102127.84;;;19.80;40.22
62976;BME280;49071;0.000;0.000;2023-05-03T06:33:20;102130.56;;;19.78;40.12
62976;BME280;49071;0.000;0.000;2023-05-03T06:36:21;102132.38;;;19.76;39.89
62976;BME280;49071;0.000;0.000;2023-05-03T06:39:21;102134.19;;;19.74;40.55
62976;BME280;49071;0.000;0.000;2023-05-03T06:42:21;102136.72;;;19.77;40.10
62976;BME280;49071;0.000;0.000;2023-05-03T06:45:21;102140.78;;;19.88;40.47
62976;BME280;49071;0.000;0.000;2023-05-03T06:48:22;102151.50;;;20.10;40.05
62976;BME280;49071;0.000;0.000;2023-05-03T06:51:25;102150.38;;;20.17;39.74
62976;BME280;49071;0.000;0.000;2023-05-03T06:54:29;102148.56;;;20.19;39.59
62976;BME280;49071;0.000;0.000;2023-05-03T06:57:29;102150.44;;;20.15;39.95
62976;BME280;49071;0.000;0.000;2023-05-03T07:00:29;102151.50;;;20.10;39.94
62976;BME280;49071;0.000;0.000;2023-05-03T07:03:30;102155.00;;;20.10;40.02
62976;BME280;49071;0.000;0.000;2023-05-03T07:06:30;102155.00;;;20.10;40.08
62976;BME280;49071;0.000;0.000;2023-05-03T07:09:30;102157.72;;;20.07;40.04
62976;BME280;49071;0.000;0.000;2023-05-03T07:12:31;102156.00;;;20.06;40.44
62976;BME280;49071;0.000;0.000;2023-05-03T07:15:31;102154.31;;;20.03;40.37
62976;BME280;49071;0.000;0.000;2023-05-03T07:18:32;102161.44;;;20.01;40.27
62976;BME280;49071;0.000;0.000;2023-05-03T07:21:32;102157.13;;;19.99;40.69
62976;BME280;49071;0.000;0.000;2023-05-03T07:24:32;102159.84;;;19.96;40.53
62976;BME280;49071;0.000;0.000;2023-05-03T07:27:32;102157.31;;;19.93;40.63
62976;BME280;49071;0.000;0.000;2023-05-03T07:30:33;102157.38;;;19.91;40.68
62976;BME280;49071;0.000;0.000;2023-05-03T07:33:33;102153.84;;;19.91;40.71
62976;BME280;49071;0.000;0.000;2023-05-03T07:36:36;102159.13;;;19.91;40.76
62976;BME280;49071;0.000;0.000;2023-05-03T07:39:37;102151.28;;;19.89;40.58
62976;BME280;49071;0.000;0.000;2023-05-03T07:42:38;102155.69;;;19.89;40.45
62976;BME280;49071;0.000;0.000;2023-05-03T07:45:38;102153.09;;;19.87;40.56
62976;BME280;49071;0.000;0.000;2023-05-03T07:48:38;102147.03;;;19.85;40.64
62976;BME280;49071;0.000;0.000;2023-05-03T07:51:38;102154.00;;;19.86;40.78
62976;BME280;49071;0.000;0.000;2023-05-03T07:54:38;102152.22;;;19.87;40.44
62976;BME280;49071;0.000;0.000;2023-05-03T07:57:39;102152.22;;;19.87;40.72
62976;BME280;49071;0.000;0.000;2023-05-03T08:00:39;102158.56;;;19.81;40.56
62976;BME280;49071;0.000;0.000;2023-05-03T08:03:39;102155.00;;;19.82;40.68
62976;BME280;49071;0.000;0.000;2023-05-03T08:06:40;102151.44;;;19.85;40.58
62976;BME280;49071;0.000;0.000;2023-05-03T08:09:41;102152.63;;;19.74;40.59
62976;BME280;49071;0.000;0.000;2023-05-03T08:12:42;102155.44;;;19.68;40.71
62976;BME280;49071;0.000;0.000;2023-05-03T08:15:42;102151.84;;;19.71;40.58
62976;BME280;49071;0.000;0.000;2023-05-03T08:18:42;102151.06;;;19.67;40.99
62976;BME280;49071;0.000;0.000;2023-05-03T08:21:42;102142.31;;;19.67;40.75
62976;BME280;49071;0.000;0.000;2023-05-03T08:24:42;102139.69;;;19.67;40.86
62976;BME280;49071;0.000;0.000;2023-05-03T08:27:43;102141.56;;;19.62;40.78
62976;BME280;49071;0.000;0.000;2023-05-03T08:30:43;102138.97;;;19.60;40.93
62976;BME280;49071;0.000;0.000;2023-05-03T08:33:44;102136.41;;;19.58;40.89
62976;BME280;49071;0.000;0.000;2023-05-03T08:36:44;102140.91;;;19.55;41.05
62976;BME280;49071;0.000;0.000;2023-05-03T08:39:44;102150.75;;;19.48;40.87
62976;BME280;49071;0.000;0.000;2023-05-03T08:42:46;102142.09;;;19.45;41.18
62976;BME280;49071;0.000;0.000;2023-05-03T08:45:46;102151.78;;;19.43;41.03
62976;BME280;49071;0.000;0.000;2023-05-03T08:48:47;102154.56;;;19.38;41.13
62976;BME280;49071;0.000;0.000;2023-05-03T08:51:48;102155.56;;;19.34;41.31
62976;BME280;49071;0.000;0.000;2023-05-03T08:54:49;102153.91;;;19.30;41.18
62976;BME280;49071;0.000;0.000;2023-05-03T08:57:49;102165.41;;;19.27;41.20
62976;BME280;49071;0.000;0.000;2023-05-03T09:00:49;102158.38;;;19.28;41.45
62976;BME280;49071;0.000;0.000;2023-05-03T09:03:50;102160.81;;;19.34;41.30
62976;BME280;49071;0.000;0.000;2023-05-03T09:06:50;102156.59;;;19.28;41.43
62976;BME280;49071;0.000;0.000;2023-05-03T09:10:21;102157.59;;;19.24;41.68
62976;BME280;49071;0.000;0.000;2023-05-03T09:13:24;102155.03;;;19.21;41.46
62976;BME280;49071;0.000;0.000;2023-05-03T09:16:28;102159.53;;;19.18;41.54
62976;BME280;49071;0.000;0.000;2023-05-03T09:19:29;102155.22;;;19.15;41.71
62976;BME280;49071;0.000;0.000;2023-05-03T09:22:30;102155.28;;;19.14;41.58
62976;BME280;49071;0.000;0.000;2023-05-03T09:25:49;102149.81;;;19.20;41.42
62976;BME280;49071;0.000;0.000;2023-05-03T09:28:50;102154.91;;;19.26;41.70
62976;BME280;49071;0.000;0.000;2023-05-03T09:31:57;102148.69;;;19.28;41.40
62976;BME280;49071;0.000;0.000;2023-05-03T09:35:07;102147.75;;;19.31;41.65
62976;BME280;49071;0.000;0.000;2023-05-03T09:38:07;102144.22;;;19.32;41.49
62976;BME280;49071;0.000;0.000;2023-05-03T09:41:28;102148.63;;;19.31;41.52
62976;BME280;49071;0.000;0.000;2023-05-03T09:44:41;102154.72;;;19.32;41.51
62976;BME280;49071;0.000;0.000;2023-05-03T09:47:48;102150.41;;;19.29;41.48
62976;BME280;49071;0.000;0.000;2023-05-03T09:50:49;102169.78;;;19.27;41.61
62976;BME280;49071;0.000;0.000;2023-05-03T09:53:50;102153.22;;;19.23;41.62
62976;BME280;49071;0.000;0.000;2023-05-03T09:56:51;102159.47;;;19.19;41.68
62976;BME280;49071;0.000;0.000;2023-05-03T09:59:51;102156.94;;;19.16;41.48
62976;BME280;49071;0.000;0.000;2023-05-03T10:02:52;102152.59;;;19.15;41.89
62976;BME280;49071;0.000;0.000;2023-05-03T10:05:53;102155.28;;;19.14;41.98
62976;BME280;49071;0.000;0.000;2023-05-03T10:12:14;102149.22;;;19.10;41.73
62976;BME280;49071;0.000;0.000;2023-05-03T10:15:17;102142.28;;;19.07;41.71
62976;BME280;49071;0.000;0.000;2023-05-03T10:18:20;102141.28;;;19.11;41.82
62976;BME280;49071;0.000;0.000;2023-05-03T10:21:24;102138.56;;;19.15;41.54
62976;BME280;49071;0.000;0.000;2023-05-03T10:24:28;102142.91;;;19.16;41.40
62976;BME280;49071;0.000;0.000;2023-05-03T10:27:49;102142.97;;;19.14;41.63
62976;BME280;49071;0.000;0.000;2023-05-03T10:30:50;102140.28;;;19.16;41.69
62976;BME280;49071;0.000;0.000;2023-05-03T10:33:50;102136.72;;;19.18;41.77
62976;BME280;49071;0.000;0.000;2023-05-03T10:36:51;102133.22;;;19.18;41.89
62976;BME280;49071;0.000;0.000;2023-05-03T10:39:52;102128.81;;;19.18;41.77
62976;BME280;49071;0.000;0.000;2023-05-03T10:42:53;102121.84;;;19.17;41.68
62976;BME280;49071;0.000;0.000;2023-05-03T10:45:55;102117.44;;;19.18;41.60
62976;BME280;49071;0.000;0.000;2023-05-03T10:49:15;102118.31;;;19.18;41.47
62976;BME280;49071;0.000;0.000;2023-05-03T10:55:34;102116.53;;;19.19;41.52
62976;BME280;49071;0.000;0.000;2023-05-03T11:01:42;102123.66;;;19.15;41.75
62976;BME280;49071;0.000;0.000;2023-05-03T11:04:43;102132.53;;;19.11;41.99
62976;BME280;49071;0.000;0.000;2023-05-03T11:07:45;102124.75;;;19.06;42.06
62976;BME280;49071;0.000;0.000;2023-05-03T11:10:46;102122.19;;;19.05;41.81
62976;BME280;49071;0.000;0.000;2023-05-03T11:13:48;102131.00;;;19.04;41.79
62976;BME280;49071;0.000;0.000;2023-05-03T11:16:49;102126.50;;;19.07;41.96
62976;BME280;49071;0.000;0.000;2023-05-03T11:19:50;102128.38;;;19.04;42.00
62976;BME280;49071;0.000;0.000;2023-05-03T11:22:50;102127.44;;;19.05;41.79
62976;BME280;49071;0.000;0.000;2023-05-03T11:25:51;102126.53;;;19.06;41.84
62976;BME280;49071;0.000;0.000;2023-05-03T11:28:52;102123.06;;;19.05;41.84
62976;BME280;49071;0.000;0.000;2023-05-03T11:31:52;102116.94;;;19.05;41.77
62976;BME280;49071;0.000;0.000;2023-05-03T11:34:53;102116.94;;;19.05;41.92
62976;BME280;49071;0.000;0.000;2023-05-03T11:37:53;102110.81;;;19.04;41.74
62976;BME280;49071;0.000;0.000;2023-05-03T11:40:53;102111.69;;;19.03;41.77
62976;BME280;49071;0.000;0.000;2023-05-03T11:43:53;102110.00;;;19.02;41.53
62976;BME280;49071;0.000;0.000;2023-05-03T11:46:53;102105.63;;;19.01;41.77
62976;BME280;49071;0.000;0.000;2023-05-03T11:49:54;102105.63;;;19.01;41.77
62976;BME280;49071;0.000;0.000;2023-05-03T11:52:55;102102.19;;;18.99;41.75
62976;BME280;49071;0.000;0.000;2023-05-03T11:55:55;102103.94;;;18.99;41.86
62976;BME280;49071;0.000;0.000;2023-05-03T11:58:57;102109.28;;;18.97;42.10
62976;BME280;49071;0.000;0.000;2023-05-03T12:02:00;102108.50;;;18.94;42.03
62976;BME280;49071;0.000;0.000;2023-05-03T12:05:00;102107.72;;;18.90;42.17
62976;BME280;49071;0.000;0.000;2023-05-03T12:08:00;102116.41;;;18.92;41.98
62976;BME280;49071;0.000;0.000;2023-05-03T12:11:01;102110.28;;;18.92;41.96
62976;BME280;49071;0.000;0.000;2023-05-03T12:14:01;102110.28;;;18.92;42.00
62976;BME280;49071;0.000;0.000;2023-05-03T12:17:01;102105.09;;;18.90;42.06
62976;BME280;49071;0.000;0.000;2023-05-03T12:23:15;102100.78;;;18.87;42.03
62976;BME280;49071;0.000;0.000;2023-05-03T12:26:16;102092.97;;;18.84;41.95
62976;BME280;49071;0.000;0.000;2023-05-03T12:29:17;102098.25;;;18.83;42.27
62976;BME280;49071;0.000;0.000;2023-05-03T12:32:18;102094.81;;;18.81;42.13
62976;BME280;49071;0.000;0.000;2023-05-03T12:35:19;102098.31;;;18.81;42.26
62976;BME280;49071;0.000;0.000;2023-05-03T12:38:22;102095.69;;;18.81;42.15
62976;BME280;49071;0.000;0.000;2023-05-03T12:41:22;102099.22;;;18.80;42.22
62976;BME280;49071;0.000;0.000;2023-05-03T12:44:26;102091.38;;;18.79;42.24
62976;BME280;49071;0.000;0.000;2023-05-03T12:47:26;102089.66;;;18.78;42.29
62976;BME280;49071;0.000;0.000;2023-05-03T12:50:26;102090.56;;;18.77;42.18
62976;BME280;49071;0.000;0.000;2023-05-03T12:53:27;102084.41;;;18.76;42.40
62976;BME280;49071;0.000;0.000;2023-05-03T12:56:27;102077.44;;;18.75;41.98
62976;BME280;49071;0.000;0.000;2023-05-03T12:59:28;102072.25;;;18.74;42.15
62976;BME280;49071;0.000;0.000;2023-05-03T13:02:28;102079.28;;;18.73;42.08
62976;BME280;49071;0.000;0.000;2023-05-03T13:05:28;102069.66;;;18.72;42.43
62976;BME280;49071;0.000;0.000;2023-05-03T13:08:29;102065.28;;;18.71;42.29
62976;BME280;49071;0.000;0.000;2023-05-03T13:11:29;102074.94;;;18.71;42.12
62976;BME280;49071;0.000;0.000;2023-05-03T13:14:29;102062.69;;;18.70;42.19
62976;BME280;49071;0.000;0.000;2023-05-03T13:17:30;102057.47;;;18.68;42.17
62976;BME280;49071;0.000;0.000;2023-05-03T13:20:30;102059.25;;;18.68;42.28
62976;BME280;49071;0.000;0.000;2023-05-03T13:23:32;102067.13;;;18.68;42.11
62976;BME280;49071;0.000;0.000;2023-05-03T13:26:32;102062.81;;;18.65;42.41
62976;BME280;49071;0.000;0.000;2023-05-03T13:29:33;102062.81;;;18.65;42.43
62976;BME280;49071;0.000;0.000;2023-05-03T13:32:33;102058.47;;;18.64;42.13
62976;BME280;49071;0.000;0.000;2023-05-03T13:35:33;102052.34;;;18.63;42.21
62976;BME280;49071;0.000;0.000;2023-05-03T13:38:34;102054.97;;;18.63;42.22
62976;BME280;49071;0.000;0.000;2023-05-03T13:41:34;102040.97;;;18.63;42.37
62976;BME280;49071;0.000;0.000;2023-05-03T13:44:37;102037.47;;;18.62;42.11
62976;BME280;49071;0.000;0.000;2023-05-03T13:47:37;102038.38;;;18.61;42.47
62976;BME280;49071;0.000;0.000;2023-05-03T13:50:37;102034.91;;;18.61;42.47
62976;BME280;49071;0.000;0.000;2023-05-03T13:53:38;102035.81;;;18.60;42.43
62976;BME280;49071;0.000;0.000;2023-05-03T13:56:38;102032.28;;;18.59;42.22
62976;BME280;49071;0.000;0.000;2023-05-03T13:59:40;102027.03;;;18.59;42.25
62976;BME280;49071;0.000;0.000;2023-05-03T14:02:40;102024.47;;;18.58;42.50
62976;BME280;49071;0.000;0.000;2023-05-03T14:05:41;102026.19;;;18.59;42.27
62976;BME280;49071;0.000;0.000;2023-05-03T14:08:41;102028.88;;;18.56;42.41
62976;BME280;49071;0.000;0.000;2023-05-03T14:11:41;102021.91;;;18.56;42.22
62976;BME280;49071;0.000;0.000;2023-05-03T14:14:42;102026.25;;;18.56;42.33
62976;BME280;49071;0.000;0.000;2023-05-03T14:17:45;102024.53;;;18.56;42.30
62976;BME280;49071;0.000;0.000;2023-05-03T14:20:45;102021.06;;;18.54;42.46
62976;BME280;49071;0.000;0.000;2023-05-03T14:23:46;102029.81;;;18.55;42.53
62976;BME280;49071;0.000;0.000;2023-05-03T14:26:46;102016.66;;;18.55;42.31
62976;BME280;49071;0.000;0.000;2023-05-03T14:29:47;102013.25;;;18.53;42.30
62976;BME280;49071;0.000;0.000;2023-05-03T14:32:47;102018.50;;;18.53;42.54
62976;BME280;49071;0.000;0.000;2023-05-03T14:35:47;102011.47;;;18.53;42.56
62976;BME280;49071;0.000;0.000;2023-05-03T14:38:48;102008.00;;;18.51;42.47
62976;BME280;49071;0.000;0.000;2023-05-03T14:41:48;102006.25;;;18.52;42.34
62976;BME280;49071;0.000;0.000;2023-05-03T14:44:49;102016.75;;;18.52;42.17
62976;BME280;49071;0.000;0.000;2023-05-03T14:47:50;102015.03;;;18.51;42.42
62976;BME280;49071;0.000;0.000;2023-05-03T14:50:50;102013.25;;;18.51;42.42
62976;BME280;49071;0.000;0.000;2023-05-03T14:53:50;102007.16;;;18.51;42.45
62976;BME280;49071;0.000;0.000;2023-05-03T14:56:52;102008.06;;;18.50;42.41
62976;BME280;49071;0.000;0.000;2023-05-03T14:59:53;102001.06;;;18.49;42.52
62976;BME280;49071;0.000;0.000;2023-05-03T15:02:53;102004.56;;;18.49;42.41
62976;BME280;49071;0.000;0.000;2023-05-03T15:05:56;102004.59;;;18.48;42.69
62976;BME280;49071;0.000;0.000;2023-05-03T15:08:56;102003.69;;;18.49;42.57
62976;BME280;49071;0.000;0.000;2023-05-03T15:11:59;102000.09;;;18.53;42.30
62976;BME280;49071;0.000;0.000;2023-05-03T15:15:00;102001.66;;;18.60;42.12
62976;BME280;49071;0.000;0.000;2023-05-03T15:18:01;102004.81;;;18.71;42.25
62976;BME280;49071;0.000;0.000;2023-05-03T15:21:01;102013.28;;;18.82;42.16
62976;BME280;49071;0.000;0.000;2023-05-03T15:24:02;101998.88;;;18.96;41.62
62976;BME280;49071;0.000;0.000;2023-05-03T15:27:03;101998.31;;;19.14;41.56
62976;BME280;49071;0.000;0.000;2023-05-03T15:30:03;101999.09;;;19.18;41.54
62976;BME280;49071;0.000;0.000;2023-05-03T15:33:04;102001.47;;;19.25;41.30
62976;BME280;49071;0.000;0.000;2023-05-03T15:36:05;102003.16;;;19.28;41.57
62976;BME280;49071;0.000;0.000;2023-05-03T15:39:06;102003.09;;;19.29;41.27
62976;BME280;49071;0.000;0.000;2023-05-03T15:42:06;101997.81;;;19.31;41.25
62976;BME280;49071;0.000;0.000;2023-05-03T15:45:06;101994.31;;;19.30;41.63
62976;BME280;49071;0.000;0.000;2023-05-03T15:48:08;101990.78;;;19.30;41.08
62976;BME280;49071;0.000;0.000;2023-05-03T15:51:08;101993.44;;;19.30;41.60
62976;BME280;49071;0.000;0.000;2023-05-03T15:54:09;101996.97;;;19.29;41.09
62976;BME280;49071;0.000;0.000;2023-05-03T15:57:09;101999.66;;;19.27;41.08
62976;BME280;49071;0.000;0.000;2023-05-03T16:00:09;101994.50;;;19.24;41.26
62976;BME280;49071;0.000;0.000;2023-05-03T16:03:14;101984.88;;;19.23;41.44
62976;BME280;49071;0.000;0.000;2023-05-03T16:06:17;101982.28;;;19.22;41.64
62976;BME280;49071;0.000;0.000;2023-05-03T16:09:17;101987.59;;;19.20;41.57
62976;BME280;49071;0.000;0.000;2023-05-03T16:12:18;101992.91;;;19.19;41.46
62976;BME280;49071;0.000;0.000;2023-05-03T16:15:18;101978.94;;;19.17;41.50
62976;BME280;49071;0.000;0.000;2023-05-03T16:18:20;101985.13;;;19.16;41.57
62976;BME280;49071;0.000;0.000;2023-05-03T16:21:20;101977.28;;;19.14;41.36
62976;BME280;49071;0.000;0.000;2023-05-03T16:24:20;101980.81;;;19.13;41.55
62976;BME280;49071;0.000;0.000;2023-05-03T16:27:21;101976.53;;;19.10;41.23
62976;BME280;49071;0.000;0.000;2023-05-03T16:30:21;101978.31;;;19.08;41.47
62976;BME280;49071;0.000;0.000;2023-05-03T16:33:21;101970.50;;;19.07;41.65
62976;BME280;49071;0.000;0.000;2023-05-03T16:36:22;101967.03;;;19.05;41.58
62976;BME280;49071;0.000;0.000;2023-05-03T16:39:22;101968.00;;;19.02;41.80
62976;BME280;49071;0.000;0.000;2023-05-03T16:42:22;101961.88;;;19.02;41.87
62976;BME280;49071;0.000;0.000;2023-05-03T16:45:22;101968.94;;;19.00;41.69
62976;BME280;49071;0.000;0.000;2023-05-03T16:48:23;101965.50;;;18.98;41.33
62976;BME280;49071;0.000;0.000;2023-05-03T16:51:23;101962.91;;;18.96;41.54
62976;BME280;49071;0.000;0.000;2023-05-03T16:54:23;101969.09;;;18.95;41.47
62976;BME280;49071;0.000;0.000;2023-05-03T16:57:24;101966.53;;;18.94;41.46
62976;BME280;49071;0.000;0.000;2023-05-03T17:00:24;101963.00;;;18.93;41.45
62976;BME280;49071;0.000;0.000;2023-05-03T17:03:24;101960.44;;;18.92;41.91
62976;BME280;49071;0.000;0.000;2023-05-03T17:06:25;101967.50;;;18.90;41.90
62976;BME280;49071;0.000;0.000;2023-05-03T17:09:26;101968.38;;;18.90;41.96
62976;BME280;49071;0.000;0.000;2023-05-03T17:12:26;101958.75;;;18.89;41.70
62976;BME280;49071;0.000;0.000;2023-05-03T17:15:27;101959.66;;;18.88;42.20
62976;BME280;49071;0.000;0.000;2023-05-03T17:18:27;101964.88;;;18.90;41.90
62976;BME280;49071;0.000;0.000;2023-05-03T17:21:27;101969.31;;;18.87;42.10
62976;BME280;49071;0.000;0.000;2023-05-03T17:24:27;101961.47;;;18.86;41.96
62976;BME280;49071;0.000;0.000;2023-05-03T17:27:28;101964.06;;;18.87;42.13
62976;BME280;49071;0.000;0.000;2023-05-03T17:30:28;101956.22;;;18.86;42.22
62976;BME280;49071;0.000;0.000;2023-05-03T17:33:28;101952.69;;;18.87;42.32
62976;BME280;49071;0.000;0.000;2023-05-03T17:36:29;101964.94;;;18.86;42.09
62976;BME280;49071;0.000;0.000;2023-05-03T17:39:29;101958.84;;;18.86;42.41
62976;BME280;49071;0.000;0.000;2023-05-03T17:42:29;101955.34;;;18.85;42.30
62976;BME280;49071;0.000;0.000;2023-05-03T17:45:32;101964.09;;;18.86;42.38
62976;BME280;49071;0.000;0.000;2023-05-03T17:48:32;101965.88;;;18.85;42.31
62976;BME280;49071;0.000;0.000;2023-05-03T17:51:32;101963.31;;;18.84;42.48
62976;BME280;49071;0.000;0.000;2023-05-03T17:54:32;101959.81;;;18.83;42.41
62976;BME280;49071;0.000;0.000;2023-05-03T17:57:34;101967.69;;;18.83;42.60
62976;BME280;49071;0.000;0.000;2023-05-03T18:00:36;101961.53;;;18.84;42.83
62976;BME280;49071;0.000;0.000;2023-05-03T18:03:36;101964.06;;;18.87;42.80
62976;BME280;49071;0.000;0.000;2023-05-03T18:06:36;101967.56;;;18.88;42.78
62976;BME280;49071;0.000;0.000;2023-05-03T18:09:37;101968.47;;;18.87;42.95
62976;BME280;49071;0.000;0.000;2023-05-03T18:12:37;101964.00;;;18.89;42.69
62976;BME280;49071;0.000;0.000;2023-05-03T18:15:38;101965.75;;;18.90;42.99
62976;BME280;49071;0.000;0.000;2023-05-03T18:18:38;101969.19;;;18.92;43.05
62976;BME280;49071;0.000;0.000;2023-05-03T18:21:39;101973.50;;;18.95;43.02
62976;BME280;49071;0.000;0.000;2023-05-03T18:24:39;101971.81;;;18.92;43.13
62976;BME280;49071;0.000;0.000;2023-05-03T18:27:39;101969.25;;;18.91;43.19
62976;BME280;49071;0.000;0.000;2023-05-03T18:30:39;101970.13;;;18.90;43.31
62976;BME280;49071;0.000;0.000;2023-05-03T18:33:39;101968.41;;;18.88;43.14
62976;BME280;49071;0.000;0.000;2023-05-03T18:36:40;101965.63;;;18.93;43.22
62976;BME280;49071;0.000;0.000;2023-05-03T18:39:40;101978.84;;;18.92;43.37
62976;BME280;49071;0.000;0.000;2023-05-03T18:42:40;101975.34;;;18.91;43.63
62976;BME280;49071;0.000;0.000;2023-05-03T18:45:40;101971.97;;;18.87;43.18
62976;BME280;49071;0.000;0.000;2023-05-03T18:48:40;101979.84;;;18.87;43.39
62976;BME280;49071;0.000;0.000;2023-05-03T18:51:41;101982.47;;;18.87;43.28
62976;BME280;49071;0.000;0.000;2023-05-03T18:54:41;101978.09;;;18.86;43.07
62976;BME280;49071;0.000;0.000;2023-05-03T18:57:41;101976.34;;;18.87;43.23
62976;BME280;49071;0.000;0.000;2023-05-03T19:00:41;101985.09;;;18.87;43.59
62976;BME280;49071;0.000;0.000;2023-05-03T19:03:41;101979.84;;;18.87;43.64
62976;BME280;49071;0.000;0.000;2023-05-03T19:06:42;101979.88;;;18.86;43.60
62976;BME280;49071;0.000;0.000;2023-05-03T19:09:42;101976.47;;;18.82;44.28
62976;BME280;49071;0.000;0.000;2023-05-03T19:12:42;101980.94;;;18.80;44.61
62976;BME280;49071;0.000;0.000;2023-05-03T19:15:43;101980.03;;;18.81;45.15
62976;BME280;49071;0.000;0.000;2023-05-03T19:18:43;101987.84;;;18.83;45.40
62976;BME280;49071;0.000;0.000;2023-05-03T19:21:44;101983.47;;;18.83;45.78
62976;BME280;49071;0.000;0.000;2023-05-03T19:24:44;101982.56;;;18.84;46.20
62976;BME280;49071;0.000;0.000;2023-05-03T19:27:44;101979.06;;;18.84;46.94
62976;BME280;49071;0.000;0.000;2023-05-03T19:30:45;101978.16;;;18.85;47.17
62976;BME280;49071;0.000;0.000;2023-05-03T19:33:50;101977.31;;;18.84;47.36
62976;BME280;49071;0.000;0.000;2023-05-03T19:36:50;101980.78;;;18.85;47.43
62976;BME280;49071;0.000;0.000;2023-05-03T19:39:50;101987.81;;;18.84;47.83
62976;BME280;49071;0.000;0.000;2023-05-03T19:42:50;101987.75;;;18.86;47.75
62976;BME280;49071;0.000;0.000;2023-05-03T19:45:51;101983.34;;;18.86;48.70
62976;BME280;49071;0.000;0.000;2023-05-03T19:48:51;101988.69;;;18.85;48.88
62976;BME280;49071;0.000;0.000;2023-05-03T19:51:52;101985.28;;;18.81;48.88
62976;BME280;49071;0.000;0.000;2023-05-03T19:54:53;101972.22;;;18.78;48.76
